Ashtabula, OH (44004)

7:08 AM EDT on August 01, 2015 (GMT -0400)
Ashtabula Harbor | | Change Station
CLOSE
Current Station
Personal Weather Station
Location: Ashtabula, OH
Elevation: 633 ft
Nearby Weather Stations

Elev 633 ft 41.88 °N, 80.81 °W | Updated 44 seconds ago

Clear
Clear
72.3 °F
Feels Like 75 °F
N
0.0
Wind Variable Wind from WSW
Gusts 2.0 mph

Today
High -- | Low -- °F
--% Chance of Precip.
Yesterday
High -- | Low -- °F
Precip. -- in
6:16 AM 8:41 PM
Full, 99% visible
Pressure 29.90 in
Visibility 10.0 miles
Clouds Few 8000 ft
Heat Index 75 °F
Dew Point 61 °F
Humidity 67%
Rainfall 0.00 in
Snow Depth Not available.
UV 0 out of 12
Pollen 7.70 out of 12
Air Quality Not available.
Flu Activity Not available.
METAR KHZY 011053Z AUTO 00000KT 10SM FEW080 15/14 A2991 RMK AO2 SLP123 T01500144

More Conditions Fewer Conditions

Pressure 29.90 in
Visibility 10.0 miles
Clouds Few 8000 ft
Heat Index 75 °F
Dew Point 61 °F
Humidity 67%
Rainfall 0.00 in
Snow Depth Not available.
UV 0 out of 12
Pollen 7.70 out of 12
Air Quality Not available.
Flu Activity Not available.
METAR KHZY 011053Z AUTO 00000KT 10SM FEW080 15/14 A2991 RMK AO2 SLP123 T01500144

More Conditions Fewer Conditions

10-Day Weather Forecast

×

Almanac

Astronomy

Aug. 01, 2015 Rise Set
Actual Time
Civil Twilight
Nautical Twilight
Astronomical Twilight
Moon
Length of Visible Light
Length of Day
Tomorrow will be .
, % of the Moon is Illuminated

Today's Extremes

State Highs State Lows

Community

WunderPhotos

Upload Photos

1,842,905 photos uploaded!

WunderBlogs® & News

Nearby

Air Quality

  Air Quality AQ Index Pollutant
Not available.

Snow Depth

Station Depth Elevation

Earthquake Activity

City Distance Mag. Time & Date
Minimum magnitude displayed is 2.5.

Coastal Water Temperatures

Place Temperature

Stations

Nearby Weather Stations

Station Location Temp. Windchill Dew Point Humidity Wind Precip. Elev Updated Type